sensor_id;sensor_type;location;lat;lon;timestamp;P1;durP1;ratioP1;P2;durP2;ratioP2
11653;SDS011;5883;48.818;9.114;2023-01-20T00:01:03;10.67;;;7.20;;
11653;SDS011;5883;48.818;9.114;2023-01-20T00:03:30;12.33;;;8.13;;
11653;SDS011;5883;48.818;9.114;2023-01-20T00:05:57;11.53;;;8.13;;
11653;SDS011;5883;48.818;9.114;2023-01-20T00:08:23;15.00;;;8.57;;
11653;SDS011;5883;48.818;9.114;2023-01-20T00:10:49;11.60;;;7.90;;
11653;SDS011;5883;48.818;9.114;2023-01-20T00:13:17;10.57;;;7.00;;
11653;SDS011;5883;48.818;9.114;2023-01-20T00:15:44;10.47;;;7.10;;
11653;SDS011;5883;48.818;9.114;2023-01-20T00:18:10;9.93;;;7.57;;
11653;SDS011;5883;48.818;9.114;2023-01-20T00:20:37;8.73;;;6.63;;
11653;SDS011;5883;48.818;9.114;2023-01-20T00:23:03;10.97;;;7.10;;
11653;SDS011;5883;48.818;9.114;2023-01-20T00:25:29;9.87;;;6.23;;
11653;SDS011;5883;48.818;9.114;2023-01-20T00:27:56;11.50;;;7.40;;
11653;SDS011;5883;48.818;9.114;2023-01-20T00:30:24;9.63;;;6.80;;
11653;SDS011;5883;48.818;9.114;2023-01-20T00:32:50;8.57;;;6.53;;
11653;SDS011;5883;48.818;9.114;2023-01-20T00:35:17;9.70;;;6.47;;
11653;SDS011;5883;48.818;9.114;2023-01-20T00:37:43;8.07;;;5.67;;
11653;SDS011;5883;48.818;9.114;2023-01-20T00:40:10;8.87;;;6.20;;
11653;SDS011;5883;48.818;9.114;2023-01-20T00:42:37;8.33;;;5.50;;
11653;SDS011;5883;48.818;9.114;2023-01-20T00:45:03;8.73;;;6.40;;
11653;SDS011;5883;48.818;9.114;2023-01-20T00:47:31;11.10;;;7.17;;
11653;SDS011;5883;48.818;9.114;2023-01-20T00:49:57;12.13;;;7.07;;
11653;SDS011;5883;48.818;9.114;2023-01-20T00:52:24;10.50;;;6.43;;
11653;SDS011;5883;48.818;9.114;2023-01-20T00:54:50;9.43;;;6.20;;
11653;SDS011;5883;48.818;9.114;2023-01-20T00:57:17;7.17;;;5.77;;
11653;SDS011;5883;48.818;9.114;2023-01-20T00:59:43;9.87;;;6.00;;
11653;SDS011;5883;48.818;9.114;2023-01-20T01:02:10;9.00;;;6.33;;
11653;SDS011;5883;48.818;9.114;2023-01-20T01:04:38;8.57;;;6.33;;
11653;SDS011;5883;48.818;9.114;2023-01-20T01:07:04;8.00;;;5.67;;
11653;SDS011;5883;48.818;9.114;2023-01-20T01:09:30;8.73;;;6.87;;
11653;SDS011;5883;48.818;9.114;2023-01-20T01:11:57;8.23;;;6.10;;
11653;SDS011;5883;48.818;9.114;2023-01-20T01:14:23;8.87;;;5.90;;
11653;SDS011;5883;48.818;9.114;2023-01-20T01:16:50;8.33;;;6.03;;
11653;SDS011;5883;48.818;9.114;2023-01-20T01:19:16;8.27;;;5.97;;
11653;SDS011;5883;48.818;9.114;2023-01-20T01:21:44;8.40;;;6.17;;
11653;SDS011;5883;48.818;9.114;2023-01-20T01:24:11;6.90;;;5.73;;
11653;SDS011;5883;48.818;9.114;2023-01-20T01:26:37;8.90;;;5.90;;
11653;SDS011;5883;48.818;9.114;2023-01-20T01:29:04;10.37;;;6.37;;
11653;SDS011;5883;48.818;9.114;2023-01-20T01:31:30;8.57;;;5.90;;
11653;SDS011;5883;48.818;9.114;2023-01-20T01:33:57;8.60;;;5.87;;
11653;SDS011;5883;48.818;9.114;2023-01-20T01:36:23;9.37;;;6.60;;
11653;SDS011;5883;48.818;9.114;2023-01-20T01:38:51;11.13;;;5.70;;
11653;SDS011;5883;48.818;9.114;2023-01-20T01:41:17;8.87;;;6.03;;
11653;SDS011;5883;48.818;9.114;2023-01-20T01:44:00;8.60;;;6.00;;
11653;SDS011;5883;48.818;9.114;2023-01-20T01:46:27;8.60;;;5.87;;
11653;SDS011;5883;48.818;9.114;2023-01-20T01:48:54;9.17;;;6.00;;
11653;SDS011;5883;48.818;9.114;2023-01-20T01:51:22;9.93;;;6.20;;
11653;SDS011;5883;48.818;9.114;2023-01-20T01:53:52;9.73;;;6.03;;
11653;SDS011;5883;48.818;9.114;2023-01-20T01:56:20;9.03;;;6.23;;
11653;SDS011;5883;48.818;9.114;2023-01-20T01:58:47;9.63;;;6.30;;
11653;SDS011;5883;48.818;9.114;2023-01-20T02:01:15;8.33;;;6.07;;
11653;SDS011;5883;48.818;9.114;2023-01-20T02:03:43;8.63;;;6.37;;
11653;SDS011;5883;48.818;9.114;2023-01-20T02:06:10;10.90;;;6.65;;
11653;SDS011;5883;48.818;9.114;2023-01-20T02:08:36;8.37;;;5.57;;
11653;SDS011;5883;48.818;9.114;2023-01-20T02:11:19;8.40;;;6.30;;
11653;SDS011;5883;48.818;9.114;2023-01-20T02:13:46;7.90;;;5.40;;
11653;SDS011;5883;48.818;9.114;2023-01-20T02:16:14;7.00;;;5.20;;
11653;SDS011;5883;48.818;9.114;2023-01-20T02:18:46;7.17;;;4.97;;
11653;SDS011;5883;48.818;9.114;2023-01-20T02:24:20;7.00;;;4.97;;
11653;SDS011;5883;48.818;9.114;2023-01-20T02:26:58;8.47;;;5.47;;
11653;SDS011;5883;48.818;9.114;2023-01-20T02:32:32;9.27;;;5.50;;
11653;SDS011;5883;48.818;9.114;2023-01-20T02:35:02;6.85;;;5.32;;
11653;SDS011;5883;48.818;9.114;2023-01-20T02:37:31;6.43;;;5.63;;
11653;SDS011;5883;48.818;9.114;2023-01-20T02:40:04;7.70;;;5.67;;
11653;SDS011;5883;48.818;9.114;2023-01-20T02:42:35;8.57;;;6.13;;
11653;SDS011;5883;48.818;9.114;2023-01-20T02:45:05;9.83;;;6.40;;
11653;SDS011;5883;48.818;9.114;2023-01-20T02:47:36;12.68;;;6.30;;
11653;SDS011;5883;48.818;9.114;2023-01-20T02:50:04;9.10;;;7.00;;
11653;SDS011;5883;48.818;9.114;2023-01-20T02:52:34;8.40;;;6.37;;
11653;SDS011;5883;48.818;9.114;2023-01-20T02:55:02;11.03;;;6.97;;
11653;SDS011;5883;48.818;9.114;2023-01-20T02:57:29;10.93;;;6.27;;
11653;SDS011;5883;48.818;9.114;2023-01-20T03:00:08;11.27;;;6.73;;
11653;SDS011;5883;48.818;9.114;2023-01-20T03:02:38;9.70;;;6.90;;
11653;SDS011;5883;48.818;9.114;2023-01-20T03:05:06;11.00;;;7.00;;
11653;SDS011;5883;48.818;9.114;2023-01-20T03:07:34;10.00;;;7.13;;
11653;SDS011;5883;48.818;9.114;2023-01-20T03:10:02;9.53;;;6.57;;
11653;SDS011;5883;48.818;9.114;2023-01-20T03:12:30;9.93;;;7.23;;
11653;SDS011;5883;48.818;9.114;2023-01-20T03:14:58;10.30;;;7.23;;
11653;SDS011;5883;48.818;9.114;2023-01-20T03:17:25;10.47;;;6.83;;
11653;SDS011;5883;48.818;9.114;2023-01-20T03:19:53;12.23;;;7.17;;
11653;SDS011;5883;48.818;9.114;2023-01-20T03:22:19;9.45;;;6.45;;
11653;SDS011;5883;48.818;9.114;2023-01-20T03:24:46;11.18;;;7.03;;
11653;SDS011;5883;48.818;9.114;2023-01-20T03:27:12;9.47;;;7.13;;
11653;SDS011;5883;48.818;9.114;2023-01-20T03:29:39;9.00;;;6.87;;
11653;SDS011;5883;48.818;9.114;2023-01-20T03:32:06;13.07;;;7.97;;
11653;SDS011;5883;48.818;9.114;2023-01-20T03:34:34;11.27;;;8.20;;
11653;SDS011;5883;48.818;9.114;2023-01-20T03:37:02;10.05;;;7.80;;
11653;SDS011;5883;48.818;9.114;2023-01-20T03:39:29;12.83;;;7.47;;
11653;SDS011;5883;48.818;9.114;2023-01-20T03:42:00;9.47;;;7.53;;
11653;SDS011;5883;48.818;9.114;2023-01-20T03:44:31;10.03;;;7.57;;
11653;SDS011;5883;48.818;9.114;2023-01-20T03:47:00;10.43;;;7.43;;
11653;SDS011;5883;48.818;9.114;2023-01-20T03:49:34;12.27;;;7.90;;
11653;SDS011;5883;48.818;9.114;2023-01-20T03:52:04;11.03;;;8.10;;
11653;SDS011;5883;48.818;9.114;2023-01-20T03:54:33;12.93;;;8.27;;
11653;SDS011;5883;48.818;9.114;2023-01-20T03:57:02;9.83;;;7.53;;
11653;SDS011;5883;48.818;9.114;2023-01-20T03:59:31;9.77;;;7.97;;
11653;SDS011;5883;48.818;9.114;2023-01-20T04:02:00;12.40;;;7.90;;
11653;SDS011;5883;48.818;9.114;2023-01-20T04:04:27;10.43;;;7.87;;
11653;SDS011;5883;48.818;9.114;2023-01-20T04:06:54;9.27;;;7.27;;
11653;SDS011;5883;48.818;9.114;2023-01-20T04:09:23;10.50;;;7.00;;
11653;SDS011;5883;48.818;9.114;2023-01-20T04:11:51;10.73;;;8.20;;
11653;SDS011;5883;48.818;9.114;2023-01-20T04:14:18;10.30;;;7.67;;
11653;SDS011;5883;48.818;9.114;2023-01-20T04:16:48;11.30;;;7.70;;
11653;SDS011;5883;48.818;9.114;2023-01-20T04:19:15;14.03;;;9.17;;
11653;SDS011;5883;48.818;9.114;2023-01-20T04:21:42;13.67;;;9.20;;
11653;SDS011;5883;48.818;9.114;2023-01-20T04:24:12;12.43;;;9.00;;
11653;SDS011;5883;48.818;9.114;2023-01-20T04:26:41;14.17;;;9.13;;
11653;SDS011;5883;48.818;9.114;2023-01-20T04:29:07;15.17;;;9.07;;
11653;SDS011;5883;48.818;9.114;2023-01-20T04:31:34;15.00;;;9.30;;
11653;SDS011;5883;48.818;9.114;2023-01-20T04:34:01;12.23;;;8.83;;
11653;SDS011;5883;48.818;9.114;2023-01-20T04:36:28;16.67;;;8.67;;
11653;SDS011;5883;48.818;9.114;2023-01-20T04:38:54;12.20;;;8.00;;
11653;SDS011;5883;48.818;9.114;2023-01-20T04:41:21;11.10;;;6.90;;
11653;SDS011;5883;48.818;9.114;2023-01-20T04:43:49;11.23;;;7.70;;
11653;SDS011;5883;48.818;9.114;2023-01-20T04:46:15;11.73;;;8.03;;
11653;SDS011;5883;48.818;9.114;2023-01-20T04:48:43;16.93;;;8.83;;
11653;SDS011;5883;48.818;9.114;2023-01-20T04:51:09;11.43;;;8.13;;
11653;SDS011;5883;48.818;9.114;2023-01-20T04:53:36;12.77;;;8.17;;
11653;SDS011;5883;48.818;9.114;2023-01-20T04:56:02;11.83;;;7.13;;
11653;SDS011;5883;48.818;9.114;2023-01-20T04:58:29;11.57;;;7.13;;
11653;SDS011;5883;48.818;9.114;2023-01-20T05:00:57;13.40;;;7.07;;
11653;SDS011;5883;48.818;9.114;2023-01-20T05:03:26;9.47;;;7.00;;
11653;SDS011;5883;48.818;9.114;2023-01-20T05:05:52;11.87;;;7.30;;
11653;SDS011;5883;48.818;9.114;2023-01-20T05:08:19;10.40;;;7.00;;
11653;SDS011;5883;48.818;9.114;2023-01-20T05:10:45;8.50;;;7.13;;
11653;SDS011;5883;48.818;9.114;2023-01-20T05:13:12;10.57;;;7.70;;
11653;SDS011;5883;48.818;9.114;2023-01-20T05:15:38;9.13;;;6.87;;
11653;SDS011;5883;48.818;9.114;2023-01-20T05:18:06;11.53;;;7.30;;
11653;SDS011;5883;48.818;9.114;2023-01-20T05:20:33;9.30;;;6.70;;
11653;SDS011;5883;48.818;9.114;2023-01-20T05:22:59;12.17;;;7.30;;
11653;SDS011;5883;48.818;9.114;2023-01-20T05:25:26;8.73;;;6.70;;
11653;SDS011;5883;48.818;9.114;2023-01-20T05:27:52;11.47;;;7.27;;
11653;SDS011;5883;48.818;9.114;2023-01-20T05:30:19;10.70;;;7.47;;
11653;SDS011;5883;48.818;9.114;2023-01-20T05:32:46;8.97;;;6.70;;
11653;SDS011;5883;48.818;9.114;2023-01-20T05:35:15;12.33;;;7.57;;
11653;SDS011;5883;48.818;9.114;2023-01-20T05:37:42;10.33;;;6.87;;
11653;SDS011;5883;48.818;9.114;2023-01-20T05:40:09;9.37;;;7.30;;
11653;SDS011;5883;48.818;9.114;2023-01-20T05:42:36;10.33;;;6.73;;
11653;SDS011;5883;48.818;9.114;2023-01-20T05:45:03;8.47;;;6.70;;
11653;SDS011;5883;48.818;9.114;2023-01-20T05:47:29;12.33;;;7.47;;
11653;SDS011;5883;48.818;9.114;2023-01-20T05:49:55;10.10;;;7.40;;
11653;SDS011;5883;48.818;9.114;2023-01-20T05:52:23;11.10;;;8.30;;
11653;SDS011;5883;48.818;9.114;2023-01-20T05:54:50;16.43;;;7.63;;
11653;SDS011;5883;48.818;9.114;2023-01-20T05:57:16;10.97;;;7.43;;
11653;SDS011;5883;48.818;9.114;2023-01-20T05:59:43;13.90;;;8.00;;
11653;SDS011;5883;48.818;9.114;2023-01-20T06:02:09;13.63;;;7.87;;
11653;SDS011;5883;48.818;9.114;2023-01-20T06:04:37;17.47;;;9.23;;
11653;SDS011;5883;48.818;9.114;2023-01-20T06:07:03;11.03;;;7.90;;
11653;SDS011;5883;48.818;9.114;2023-01-20T06:09:31;11.77;;;8.03;;
11653;SDS011;5883;48.818;9.114;2023-01-20T06:11:57;11.90;;;7.67;;
11653;SDS011;5883;48.818;9.114;2023-01-20T06:14:24;12.77;;;7.27;;
11653;SDS011;5883;48.818;9.114;2023-01-20T06:16:50;10.53;;;6.80;;
11653;SDS011;5883;48.818;9.114;2023-01-20T06:19:17;9.00;;;6.10;;
11653;SDS011;5883;48.818;9.114;2023-01-20T06:21:43;10.57;;;6.33;;
11653;SDS011;5883;48.818;9.114;2023-01-20T06:24:09;10.43;;;6.60;;
11653;SDS011;5883;48.818;9.114;2023-01-20T06:26:37;9.57;;;6.70;;
11653;SDS011;5883;48.818;9.114;2023-01-20T06:29:04;9.00;;;5.63;;
11653;SDS011;5883;48.818;9.114;2023-01-20T06:31:33;7.90;;;5.77;;
11653;SDS011;5883;48.818;9.114;2023-01-20T06:33:59;7.73;;;5.47;;
11653;SDS011;5883;48.818;9.114;2023-01-20T06:36:26;8.30;;;6.27;;
11653;SDS011;5883;48.818;9.114;2023-01-20T06:38:53;9.67;;;6.13;;
11653;SDS011;5883;48.818;9.114;2023-01-20T06:41:19;8.47;;;6.07;;
11653;SDS011;5883;48.818;9.114;2023-01-20T06:43:47;8.17;;;5.47;;
11653;SDS011;5883;48.818;9.114;2023-01-20T06:46:14;7.23;;;5.37;;
11653;SDS011;5883;48.818;9.114;2023-01-20T06:48:41;8.03;;;5.97;;
11653;SDS011;5883;48.818;9.114;2023-01-20T06:51:12;9.77;;;6.40;;
11653;SDS011;5883;48.818;9.114;2023-01-20T06:53:43;8.23;;;6.00;;
11653;SDS011;5883;48.818;9.114;2023-01-20T06:56:09;9.23;;;6.00;;
11653;SDS011;5883;48.818;9.114;2023-01-20T06:58:38;9.17;;;6.47;;
11653;SDS011;5883;48.818;9.114;2023-01-20T07:01:06;9.57;;;6.30;;
11653;SDS011;5883;48.818;9.114;2023-01-20T07:03:33;7.40;;;5.83;;
11653;SDS011;5883;48.818;9.114;2023-01-20T07:06:00;8.43;;;6.57;;
11653;SDS011;5883;48.818;9.114;2023-01-20T07:08:27;8.10;;;5.87;;
11653;SDS011;5883;48.818;9.114;2023-01-20T07:10:54;11.30;;;6.33;;
11653;SDS011;5883;48.818;9.114;2023-01-20T07:13:20;9.17;;;6.30;;
11653;SDS011;5883;48.818;9.114;2023-01-20T07:15:47;11.10;;;7.13;;
11653;SDS011;5883;48.818;9.114;2023-01-20T07:18:15;8.63;;;6.33;;
11653;SDS011;5883;48.818;9.114;2023-01-20T07:20:41;9.17;;;6.17;;
11653;SDS011;5883;48.818;9.114;2023-01-20T07:23:08;8.33;;;5.83;;
11653;SDS011;5883;48.818;9.114;2023-01-20T07:25:34;11.30;;;6.00;;
11653;SDS011;5883;48.818;9.114;2023-01-20T07:28:02;8.67;;;5.67;;
11653;SDS011;5883;48.818;9.114;2023-01-20T07:30:28;6.67;;;5.57;;
11653;SDS011;5883;48.818;9.114;2023-01-20T07:32:57;11.37;;;6.03;;
11653;SDS011;5883;48.818;9.114;2023-01-20T07:35:25;12.73;;;6.17;;
11653;SDS011;5883;48.818;9.114;2023-01-20T07:37:52;11.63;;;6.17;;
11653;SDS011;5883;48.818;9.114;2023-01-20T07:40:18;7.03;;;5.50;;
11653;SDS011;5883;48.818;9.114;2023-01-20T07:42:45;8.83;;;5.97;;
11653;SDS011;5883;48.818;9.114;2023-01-20T07:45:12;7.63;;;5.72;;
11653;SDS011;5883;48.818;9.114;2023-01-20T07:47:47;7.27;;;5.53;;
11653;SDS011;5883;48.818;9.114;2023-01-20T07:50:33;7.37;;;6.17;;
11653;SDS011;5883;48.818;9.114;2023-01-20T07:53:04;8.77;;;6.27;;
11653;SDS011;5883;48.818;9.114;2023-01-20T07:55:36;8.97;;;6.67;;
11653;SDS011;5883;48.818;9.114;2023-01-20T07:58:08;11.13;;;6.90;;
11653;SDS011;5883;48.818;9.114;2023-01-20T08:00:39;6.70;;;5.57;;
11653;SDS011;5883;48.818;9.114;2023-01-20T08:03:05;6.73;;;5.83;;
11653;SDS011;5883;48.818;9.114;2023-01-20T08:05:33;7.37;;;6.17;;
11653;SDS011;5883;48.818;9.114;2023-01-20T08:07:59;9.83;;;6.57;;
11653;SDS011;5883;48.818;9.114;2023-01-20T08:10:26;9.93;;;6.33;;
11653;SDS011;5883;48.818;9.114;2023-01-20T08:12:53;8.37;;;6.37;;
11653;SDS011;5883;48.818;9.114;2023-01-20T08:15:19;9.38;;;6.50;;
11653;SDS011;5883;48.818;9.114;2023-01-20T08:17:46;10.50;;;6.88;;
11653;SDS011;5883;48.818;9.114;2023-01-20T08:20:12;11.53;;;7.10;;
11653;SDS011;5883;48.818;9.114;2023-01-20T08:22:40;9.10;;;6.57;;
11653;SDS011;5883;48.818;9.114;2023-01-20T08:25:07;7.87;;;6.57;;
11653;SDS011;5883;48.818;9.114;2023-01-20T08:27:36;9.88;;;7.07;;
11653;SDS011;5883;48.818;9.114;2023-01-20T08:30:02;9.23;;;6.70;;
11653;SDS011;5883;48.818;9.114;2023-01-20T08:32:29;10.05;;;7.15;;
11653;SDS011;5883;48.818;9.114;2023-01-20T08:34:56;8.27;;;6.68;;
11653;SDS011;5883;48.818;9.114;2023-01-20T08:37:22;8.88;;;6.65;;
11653;SDS011;5883;48.818;9.114;2023-01-20T08:39:50;9.07;;;6.95;;
11653;SDS011;5883;48.818;9.114;2023-01-20T08:42:16;9.65;;;6.97;;
11653;SDS011;5883;48.818;9.114;2023-01-20T08:44:43;9.57;;;6.90;;
11653;SDS011;5883;48.818;9.114;2023-01-20T08:47:11;8.90;;;6.55;;
11653;SDS011;5883;48.818;9.114;2023-01-20T08:49:37;10.55;;;7.22;;
11653;SDS011;5883;48.818;9.114;2023-01-20T08:52:07;9.75;;;6.57;;
11653;SDS011;5883;48.818;9.114;2023-01-20T08:54:33;7.57;;;6.53;;
11653;SDS011;5883;48.818;9.114;2023-01-20T08:57:01;10.18;;;6.60;;
11653;SDS011;5883;48.818;9.114;2023-01-20T08:59:27;11.38;;;7.35;;
11653;SDS011;5883;48.818;9.114;2023-01-20T09:01:54;11.48;;;8.15;;
11653;SDS011;5883;48.818;9.114;2023-01-20T09:04:22;10.77;;;7.88;;
11653;SDS011;5883;48.818;9.114;2023-01-20T09:06:49;16.48;;;10.77;;
11653;SDS011;5883;48.818;9.114;2023-01-20T09:09:17;27.00;;;14.23;;
11653;SDS011;5883;48.818;9.114;2023-01-20T09:11:44;26.43;;;15.53;;
11653;SDS011;5883;48.818;9.114;2023-01-20T09:14:16;18.73;;;13.30;;
11653;SDS011;5883;48.818;9.114;2023-01-20T09:16:43;17.50;;;10.75;;
11653;SDS011;5883;48.818;9.114;2023-01-20T09:19:09;14.60;;;9.60;;
11653;SDS011;5883;48.818;9.114;2023-01-20T09:21:36;14.23;;;9.52;;
11653;SDS011;5883;48.818;9.114;2023-01-20T09:24:03;10.77;;;7.68;;
11653;SDS011;5883;48.818;9.114;2023-01-20T09:26:29;9.02;;;6.28;;
11653;SDS011;5883;48.818;9.114;2023-01-20T09:29:02;12.55;;;6.90;;
11653;SDS011;5883;48.818;9.114;2023-01-20T09:31:34;8.23;;;6.25;;
11653;SDS011;5883;48.818;9.114;2023-01-20T09:34:01;9.70;;;6.15;;
11653;SDS011;5883;48.818;9.114;2023-01-20T09:36:27;7.78;;;5.80;;
11653;SDS011;5883;48.818;9.114;2023-01-20T09:38:54;9.27;;;5.93;;
11653;SDS011;5883;48.818;9.114;2023-01-20T09:41:38;9.27;;;5.80;;
11653;SDS011;5883;48.818;9.114;2023-01-20T09:44:41;9.35;;;5.50;;
11653;SDS011;5883;48.818;9.114;2023-01-20T09:47:15;6.90;;;5.53;;
11653;SDS011;5883;48.818;9.114;2023-01-20T09:49:49;6.75;;;5.28;;
11653;SDS011;5883;48.818;9.114;2023-01-20T09:52:35;7.95;;;6.10;;
11653;SDS011;5883;48.818;9.114;2023-01-20T09:55:20;8.93;;;6.05;;
11653;SDS011;5883;48.818;9.114;2023-01-20T09:57:49;8.27;;;6.00;;
11653;SDS011;5883;48.818;9.114;2023-01-20T10:00:18;7.72;;;6.55;;
11653;SDS011;5883;48.818;9.114;2023-01-20T10:02:48;8.52;;;5.90;;
11653;SDS011;5883;48.818;9.114;2023-01-20T10:05:21;10.73;;;6.80;;
11653;SDS011;5883;48.818;9.114;2023-01-20T10:07:51;9.07;;;6.15;;
11653;SDS011;5883;48.818;9.114;2023-01-20T10:10:20;8.23;;;5.85;;
11653;SDS011;5883;48.818;9.114;2023-01-20T10:12:49;7.43;;;5.60;;
11653;SDS011;5883;48.818;9.114;2023-01-20T10:15:18;9.65;;;5.50;;
11653;SDS011;5883;48.818;9.114;2023-01-20T10:17:48;61.78;;;9.38;;
11653;SDS011;5883;48.818;9.114;2023-01-20T10:20:19;6.93;;;5.07;;
11653;SDS011;5883;48.818;9.114;2023-01-20T10:22:49;7.80;;;5.60;;
11653;SDS011;5883;48.818;9.114;2023-01-20T10:25:19;8.25;;;5.35;;
11653;SDS011;5883;48.818;9.114;2023-01-20T10:27:48;9.30;;;5.78;;
11653;SDS011;5883;48.818;9.114;2023-01-20T10:30:15;7.13;;;5.75;;
11653;SDS011;5883;48.818;9.114;2023-01-20T10:32:44;8.82;;;5.18;;
11653;SDS011;5883;48.818;9.114;2023-01-20T10:35:15;9.65;;;5.25;;
11653;SDS011;5883;48.818;9.114;2023-01-20T10:37:43;7.50;;;5.63;;
11653;SDS011;5883;48.818;9.114;2023-01-20T10:40:14;8.32;;;5.28;;
11653;SDS011;5883;48.818;9.114;2023-01-20T10:42:46;7.75;;;4.93;;
11653;SDS011;5883;48.818;9.114;2023-01-20T10:45:14;9.80;;;5.40;;
11653;SDS011;5883;48.818;9.114;2023-01-20T10:47:45;5.95;;;4.40;;
11653;SDS011;5883;48.818;9.114;2023-01-20T10:55:44;4.80;;;3.72;;
11653;SDS011;5883;48.818;9.114;2023-01-20T10:58:17;6.72;;;4.53;;
11653;SDS011;5883;48.818;9.114;2023-01-20T11:00:46;9.07;;;4.88;;
11653;SDS011;5883;48.818;9.114;2023-01-20T11:03:14;7.32;;;3.80;;
11653;SDS011;5883;48.818;9.114;2023-01-20T11:05:42;8.63;;;4.40;;
11653;SDS011;5883;48.818;9.114;2023-01-20T11:08:13;6.18;;;3.67;;
11653;SDS011;5883;48.818;9.114;2023-01-20T11:10:40;6.82;;;4.13;;
11653;SDS011;5883;48.818;9.114;2023-01-20T11:13:08;3.35;;;3.05;;
11653;SDS011;5883;48.818;9.114;2023-01-20T11:15:36;4.35;;;3.45;;
11653;SDS011;5883;48.818;9.114;2023-01-20T11:18:23;5.72;;;3.10;;
11653;SDS011;5883;48.818;9.114;2023-01-20T11:20:52;5.57;;;3.67;;
11653;SDS011;5883;48.818;9.114;2023-01-20T11:23:20;4.72;;;3.53;;
11653;SDS011;5883;48.818;9.114;2023-01-20T11:25:52;4.63;;;3.38;;
11653;SDS011;5883;48.818;9.114;2023-01-20T11:28:20;4.35;;;3.28;;
11653;SDS011;5883;48.818;9.114;2023-01-20T11:30:54;5.90;;;3.10;;
11653;SDS011;5883;48.818;9.114;2023-01-20T11:33:22;4.38;;;3.47;;
11653;SDS011;5883;48.818;9.114;2023-01-20T11:35:59;5.85;;;3.78;;
11653;SDS011;5883;48.818;9.114;2023-01-20T11:38:26;5.35;;;3.20;;
11653;SDS011;5883;48.818;9.114;2023-01-20T11:40:55;4.18;;;3.50;;
11653;SDS011;5883;48.818;9.114;2023-01-20T11:43:32;6.45;;;3.78;;
11653;SDS011;5883;48.818;9.114;2023-01-20T11:46:14;5.65;;;4.03;;
11653;SDS011;5883;48.818;9.114;2023-01-20T11:48:45;4.80;;;4.32;;
11653;SDS011;5883;48.818;9.114;2023-01-20T11:51:18;7.30;;;3.72;;
11653;SDS011;5883;48.818;9.114;2023-01-20T11:53:46;6.57;;;4.20;;
11653;SDS011;5883;48.818;9.114;2023-01-20T11:56:16;7.05;;;4.28;;
11653;SDS011;5883;48.818;9.114;2023-01-20T11:58:52;6.90;;;4.13;;
11653;SDS011;5883;48.818;9.114;2023-01-20T12:01:21;6.65;;;3.88;;
11653;SDS011;5883;48.818;9.114;2023-01-20T12:06:42;6.90;;;4.03;;
11653;SDS011;5883;48.818;9.114;2023-01-20T12:09:12;9.38;;;4.22;;
11653;SDS011;5883;48.818;9.114;2023-01-20T12:11:41;8.30;;;4.38;;
11653;SDS011;5883;48.818;9.114;2023-01-20T12:14:15;6.38;;;4.07;;
11653;SDS011;5883;48.818;9.114;2023-01-20T12:16:48;5.40;;;3.40;;
11653;SDS011;5883;48.818;9.114;2023-01-20T12:19:16;6.25;;;4.03;;
11653;SDS011;5883;48.818;9.114;2023-01-20T12:21:45;5.93;;;4.07;;
11653;SDS011;5883;48.818;9.114;2023-01-20T12:24:14;6.20;;;4.45;;
11653;SDS011;5883;48.818;9.114;2023-01-20T12:26:43;7.03;;;5.00;;
11653;SDS011;5883;48.818;9.114;2023-01-20T12:29:12;6.50;;;4.63;;
11653;SDS011;5883;48.818;9.114;2023-01-20T12:31:44;8.57;;;4.97;;
11653;SDS011;5883;48.818;9.114;2023-01-20T12:34:13;7.18;;;4.57;;
11653;SDS011;5883;48.818;9.114;2023-01-20T12:36:45;8.80;;;5.30;;
11653;SDS011;5883;48.818;9.114;2023-01-20T12:39:27;5.30;;;3.75;;
11653;SDS011;5883;48.818;9.114;2023-01-20T12:42:02;4.70;;;3.97;;
11653;SDS011;5883;48.818;9.114;2023-01-20T12:44:34;13.73;;;4.55;;
11653;SDS011;5883;48.818;9.114;2023-01-20T12:47:05;13.63;;;4.95;;
11653;SDS011;5883;48.818;9.114;2023-01-20T12:49:42;7.95;;;4.88;;
11653;SDS011;5883;48.818;9.114;2023-01-20T12:52:17;6.80;;;4.20;;
11653;SDS011;5883;48.818;9.114;2023-01-20T12:54:50;10.38;;;4.50;;
11653;SDS011;5883;48.818;9.114;2023-01-20T13:00:05;6.20;;;3.95;;
11653;SDS011;5883;48.818;9.114;2023-01-20T13:02:42;5.70;;;3.85;;
11653;SDS011;5883;48.818;9.114;2023-01-20T13:05:15;5.35;;;3.78;;
11653;SDS011;5883;48.818;9.114;2023-01-20T13:07:47;8.70;;;3.70;;
11653;SDS011;5883;48.818;9.114;2023-01-20T13:13:08;4.55;;;3.40;;
11653;SDS011;5883;48.818;9.114;2023-01-20T13:15:39;6.80;;;3.30;;
11653;SDS011;5883;48.818;9.114;2023-01-20T13:18:14;7.53;;;3.13;;
11653;SDS011;5883;48.818;9.114;2023-01-20T13:20:43;6.70;;;3.60;;
11653;SDS011;5883;48.818;9.114;2023-01-20T13:23:11;4.00;;;3.05;;
11653;SDS011;5883;48.818;9.114;2023-01-20T13:25:38;6.78;;;3.78;;
11653;SDS011;5883;48.818;9.114;2023-01-20T13:28:10;4.97;;;3.40;;
11653;SDS011;5883;48.818;9.114;2023-01-20T13:30:38;6.22;;;4.38;;
11653;SDS011;5883;48.818;9.114;2023-01-20T13:33:13;8.98;;;4.57;;
11653;SDS011;5883;48.818;9.114;2023-01-20T13:35:43;7.20;;;4.22;;
11653;SDS011;5883;48.818;9.114;2023-01-20T13:38:15;8.63;;;4.38;;
11653;SDS011;5883;48.818;9.114;2023-01-20T13:40:47;7.38;;;3.70;;
11653;SDS011;5883;48.818;9.114;2023-01-20T13:46:35;4.45;;;2.45;;
11653;SDS011;5883;48.818;9.114;2023-01-20T13:49:11;5.05;;;2.05;;
11653;SDS011;5883;48.818;9.114;2023-01-20T13:51:42;5.18;;;2.25;;
11653;SDS011;5883;48.818;9.114;2023-01-20T13:59:36;5.57;;;2.67;;
11653;SDS011;5883;48.818;9.114;2023-01-20T14:02:09;4.18;;;2.90;;
11653;SDS011;5883;48.818;9.114;2023-01-20T14:04:43;4.40;;;2.53;;
11653;SDS011;5883;48.818;9.114;2023-01-20T14:07:20;6.50;;;3.05;;
11653;SDS011;5883;48.818;9.114;2023-01-20T14:09:50;6.00;;;2.88;;
11653;SDS011;5883;48.818;9.114;2023-01-20T14:12:16;6.88;;;3.30;;
11653;SDS011;5883;48.818;9.114;2023-01-20T14:14:43;5.22;;;2.45;;
11653;SDS011;5883;48.818;9.114;2023-01-20T14:17:12;4.38;;;2.45;;
11653;SDS011;5883;48.818;9.114;2023-01-20T14:19:40;3.45;;;2.60;;
11653;SDS011;5883;48.818;9.114;2023-01-20T14:22:17;5.15;;;2.75;;
11653;SDS011;5883;48.818;9.114;2023-01-20T14:24:44;6.05;;;3.22;;
11653;SDS011;5883;48.818;9.114;2023-01-20T14:27:14;7.50;;;3.80;;
11653;SDS011;5883;48.818;9.114;2023-01-20T14:29:42;5.03;;;3.25;;
11653;SDS011;5883;48.818;9.114;2023-01-20T14:32:18;5.22;;;3.40;;
11653;SDS011;5883;48.818;9.114;2023-01-20T14:34:44;4.70;;;3.20;;
11653;SDS011;5883;48.818;9.114;2023-01-20T14:37:19;5.55;;;3.30;;
11653;SDS011;5883;48.818;9.114;2023-01-20T14:39:46;4.25;;;3.00;;
11653;SDS011;5883;48.818;9.114;2023-01-20T14:42:15;3.80;;;3.05;;
11653;SDS011;5883;48.818;9.114;2023-01-20T14:44:42;4.75;;;2.65;;
11653;SDS011;5883;48.818;9.114;2023-01-20T14:47:11;4.07;;;2.38;;
11653;SDS011;5883;48.818;9.114;2023-01-20T14:49:38;5.47;;;2.95;;
11653;SDS011;5883;48.818;9.114;2023-01-20T14:52:06;6.32;;;3.08;;
11653;SDS011;5883;48.818;9.114;2023-01-20T14:54:35;6.70;;;3.50;;
11653;SDS011;5883;48.818;9.114;2023-01-20T14:57:18;7.32;;;4.22;;
11653;SDS011;5883;48.818;9.114;2023-01-20T14:59:45;8.02;;;4.40;;
11653;SDS011;5883;48.818;9.114;2023-01-20T15:02:15;7.97;;;3.55;;
11653;SDS011;5883;48.818;9.114;2023-01-20T15:04:42;5.18;;;3.17;;
11653;SDS011;5883;48.818;9.114;2023-01-20T15:07:11;7.45;;;3.40;;
11653;SDS011;5883;48.818;9.114;2023-01-20T15:09:41;4.72;;;2.97;;
11653;SDS011;5883;48.818;9.114;2023-01-20T15:15:04;8.05;;;3.10;;
11653;SDS011;5883;48.818;9.114;2023-01-20T15:17:41;5.82;;;2.92;;
11653;SDS011;5883;48.818;9.114;2023-01-20T15:22:48;4.05;;;3.10;;
11653;SDS011;5883;48.818;9.114;2023-01-20T15:25:16;4.32;;;2.83;;
11653;SDS011;5883;48.818;9.114;2023-01-20T15:27:43;4.38;;;3.50;;
11653;SDS011;5883;48.818;9.114;2023-01-20T15:30:17;9.40;;;3.13;;
11653;SDS011;5883;48.818;9.114;2023-01-20T15:32:45;8.63;;;3.90;;
11653;SDS011;5883;48.818;9.114;2023-01-20T15:35:12;4.45;;;3.33;;
11653;SDS011;5883;48.818;9.114;2023-01-20T15:37:38;5.00;;;3.17;;
11653;SDS011;5883;48.818;9.114;2023-01-20T15:40:08;6.18;;;3.35;;
11653;SDS011;5883;48.818;9.114;2023-01-20T15:42:39;3.25;;;2.60;;